Time;durP1;ratioP1;P1;durP2;ratioP2;P2;SDS_P1;SDS_P2;PMS_P1;PMS_P2;Temp;Humidity;BMP_temperature;BMP_pressure;BME280_temperature;BME280_humidity;BME280_pressure;Samples;Min_cycle;Max_cycle;Signal;HPM_P1;HPM_P2
2022/08/30 00:01:02;;;;;;;4.17;2.33;;;;;;;;;;5059719;28;20186;-76
2022/08/30 00:03:39;;;;;;;3.90;2.37;;;;;;;;;;5046660;28;20288;-77
2022/08/30 00:06:06;;;;;;;5.33;2.57;;;;;;;;;;5056450;28;20268;-76
2022/08/30 00:08:34;;;;;;;3.40;2.40;;;;;;;;;;5068697;28;20541;-76
2022/08/30 00:11:00;;;;;;;5.00;2.20;;;;;;;;;;5058124;28;20181;-76
2022/08/30 00:13:26;;;;;;;5.73;2.77;;;;;;;;;;5060233;28;20220;-77
2022/08/30 00:15:52;;;;;;;3.97;2.17;;;;;;;;;;5073314;28;20197;-76
2022/08/30 00:18:19;;;;;;;3.17;2.07;;;;;;;;;;5053790;28;20243;-76
2022/08/30 00:20:46;;;;;;;6.80;2.50;;;;;;;;;;5058331;28;20181;-76
2022/08/30 00:23:13;;;;;;;2.73;2.10;;;;;;;;;;5057389;28;20212;-76
2022/08/30 00:25:39;;;;;;;3.63;2.13;;;;;;;;;;5059891;28;20590;-76
2022/08/30 00:28:05;;;;;;;3.90;2.20;;;;;;;;;;5061985;28;20192;-76
2022/08/30 00:30:32;;;;;;;3.80;2.40;;;;;;;;;;5070126;28;20703;-76
2022/08/30 00:32:58;;;;;;;2.30;2.07;;;;;;;;;;5058574;28;20300;-76
2022/08/30 00:35:24;;;;;;;4.37;2.07;;;;;;;;;;5065692;28;20173;-76
2022/08/30 00:37:51;;;;;;;3.73;2.10;;;;;;;;;;5060231;28;20179;-76
2022/08/30 00:40:19;;;;;;;4.17;2.20;;;;;;;;;;5051355;28;20186;-76
2022/08/30 00:42:45;;;;;;;2.90;2.10;;;;;;;;;;5056897;28;20660;-76
2022/08/30 00:45:14;;;;;;;4.83;2.20;;;;;;;;;;5059925;28;20212;-76
2022/08/30 00:47:40;;;;;;;4.87;2.50;;;;;;;;;;5053232;28;20207;-76
2022/08/30 00:50:07;;;;;;;4.57;2.07;;;;;;;;;;5063650;28;20177;-76
2022/08/30 00:52:34;;;;;;;4.63;2.20;;;;;;;;;;5069174;28;20597;-76
2022/08/30 00:55:01;;;;;;;2.70;2.07;;;;;;;;;;5056155;28;20602;-76
2022/08/30 00:57:27;;;;;;;6.47;2.30;;;;;;;;;;5065221;28;21105;-76
2022/08/30 00:59:54;;;;;;;4.47;2.40;;;;;;;;;;5068650;28;20192;-76
2022/08/30 01:02:22;;;;;;;4.40;2.20;;;;;;;;;;5057160;28;20189;-77
2022/08/30 01:04:50;;;;;;;3.97;2.20;;;;;;;;;;5054054;28;20250;-76
2022/08/30 01:07:17;;;;;;;3.73;2.17;;;;;;;;;;5054659;28;20178;-77
2022/08/30 01:09:43;;;;;;;3.63;2.40;;;;;;;;;;5046387;28;20182;-76
2022/08/30 01:12:10;;;;;;;4.27;2.50;;;;;;;;;;5046599;28;20227;-76
2022/08/30 01:14:37;;;;;;;2.47;2.20;;;;;;;;;;5062769;28;20239;-76
2022/08/30 01:17:04;;;;;;;3.80;2.30;;;;;;;;;;5045566;28;20181;-76
2022/08/30 01:19:35;;;;;;;3.77;2.20;;;;;;;;;;5061970;28;20178;-76
2022/08/30 01:22:05;;;;;;;2.93;2.40;;;;;;;;;;5054118;28;20193;-76
2022/08/30 01:24:31;;;;;;;3.07;2.30;;;;;;;;;;5064516;28;20335;-76
2022/08/30 01:26:58;;;;;;;3.30;2.23;;;;;;;;;;5067281;28;20207;-76
2022/08/30 01:29:25;;;;;;;3.77;2.30;;;;;;;;;;5049914;28;20189;-76
2022/08/30 01:31:51;;;;;;;2.60;2.07;;;;;;;;;;5055210;28;20630;-76
2022/08/30 01:34:18;;;;;;;3.53;2.10;;;;;;;;;;5073199;28;20680;-76
2022/08/30 01:36:45;;;;;;;4.47;2.33;;;;;;;;;;5065387;28;20189;-76
2022/08/30 01:39:13;;;;;;;4.07;2.30;;;;;;;;;;5059376;28;20273;-77
2022/08/30 01:41:39;;;;;;;5.17;2.40;;;;;;;;;;5065335;28;20166;-76
2022/08/30 01:44:07;;;;;;;2.77;2.00;;;;;;;;;;5080881;28;20226;-76
2022/08/30 01:46:37;;;;;;;4.00;2.30;;;;;;;;;;5066406;28;20169;-76
2022/08/30 01:49:06;;;;;;;4.00;2.60;;;;;;;;;;5064526;28;20663;-77
2022/08/30 01:51:33;;;;;;;5.83;2.33;;;;;;;;;;5065419;28;20186;-76
2022/08/30 01:53:59;;;;;;;5.17;2.80;;;;;;;;;;5061361;28;20216;-76
2022/08/30 01:56:26;;;;;;;4.93;2.20;;;;;;;;;;5068010;28;20434;-76
2022/08/30 01:58:52;;;;;;;4.37;2.23;;;;;;;;;;5069341;28;20197;-76
2022/08/30 02:01:21;;;;;;;4.70;2.40;;;;;;;;;;5059686;28;20190;-76
2022/08/30 02:03:47;;;;;;;4.20;2.23;;;;;;;;;;5060457;28;20675;-77
2022/08/30 02:06:15;;;;;;;4.80;2.80;;;;;;;;;;5064705;28;20174;-76
2022/08/30 02:08:41;;;;;;;3.57;2.40;;;;;;;;;;5063014;28;20177;-76
2022/08/30 02:11:08;;;;;;;4.50;2.70;;;;;;;;;;5057303;28;20220;-77
2022/08/30 02:13:36;;;;;;;4.80;2.87;;;;;;;;;;5069237;28;20699;-77
2022/08/30 02:16:03;;;;;;;5.37;2.77;;;;;;;;;;5068352;28;20676;-76
2022/08/30 02:18:29;;;;;;;3.80;2.60;;;;;;;;;;5062744;28;20185;-76
2022/08/30 02:20:55;;;;;;;3.73;2.43;;;;;;;;;;5056123;28;20178;-76
2022/08/30 02:23:21;;;;;;;3.97;2.60;;;;;;;;;;5065588;28;20316;-76
2022/08/30 02:25:47;;;;;;;4.90;2.50;;;;;;;;;;5061884;28;20202;-77
2022/08/30 02:28:14;;;;;;;4.67;2.60;;;;;;;;;;5068492;28;21103;-77
2022/08/30 02:30:41;;;;;;;3.50;2.53;;;;;;;;;;5057043;28;20208;-76
2022/08/30 02:33:07;;;;;;;3.97;2.47;;;;;;;;;;5050446;28;20250;-77
2022/08/30 02:35:33;;;;;;;8.40;3.07;;;;;;;;;;5054217;28;20178;-77
2022/08/30 02:38:00;;;;;;;5.77;2.90;;;;;;;;;;5068755;28;20200;-77
2022/08/30 02:40:26;;;;;;;3.53;2.57;;;;;;;;;;5064913;28;20224;-77
2022/08/30 02:42:52;;;;;;;3.27;2.37;;;;;;;;;;5065246;28;20759;-77
2022/08/30 02:45:18;;;;;;;4.23;2.90;;;;;;;;;;5067554;28;20181;-77
2022/08/30 02:47:44;;;;;;;5.23;2.70;;;;;;;;;;5055171;28;20166;-77
2022/08/30 02:50:11;;;;;;;3.93;2.90;;;;;;;;;;5058827;28;20865;-77
2022/08/30 02:52:37;;;;;;;4.27;2.80;;;;;;;;;;5066088;28;20182;-77
2022/08/30 02:55:07;;;;;;;3.67;2.70;;;;;;;;;;5076755;28;20483;-77
2022/08/30 02:57:33;;;;;;;4.93;3.13;;;;;;;;;;5068084;28;20181;-77
2022/08/30 03:00:00;;;;;;;4.20;2.43;;;;;;;;;;5056526;28;20184;-76
2022/08/30 03:02:29;;;;;;;6.23;2.90;;;;;;;;;;5061019;28;20688;-77
2022/08/30 03:04:56;;;;;;;3.90;2.80;;;;;;;;;;5049934;28;20206;-76
2022/08/30 03:07:22;;;;;;;3.23;2.60;;;;;;;;;;5061723;28;20589;-77
2022/08/30 03:09:48;;;;;;;5.43;2.80;;;;;;;;;;5067143;28;20174;-77
2022/08/30 03:12:15;;;;;;;4.37;2.80;;;;;;;;;;5082929;28;20177;-77
2022/08/30 03:14:41;;;;;;;4.60;2.50;;;;;;;;;;5042266;28;20707;-76
2022/08/30 03:17:08;;;;;;;5.47;2.73;;;;;;;;;;5063642;28;20178;-76
2022/08/30 03:19:35;;;;;;;3.97;2.40;;;;;;;;;;5069075;28;20185;-76
2022/08/30 03:22:01;;;;;;;5.43;2.77;;;;;;;;;;5068433;28;20181;-77
2022/08/30 03:24:28;;;;;;;4.47;2.53;;;;;;;;;;5074178;28;20208;-76
2022/08/30 03:26:54;;;;;;;6.10;2.60;;;;;;;;;;5059824;28;20239;-77
2022/08/30 03:29:21;;;;;;;4.67;2.50;;;;;;;;;;5064815;28;20173;-77
2022/08/30 03:31:48;;;;;;;4.80;2.67;;;;;;;;;;5069674;28;20203;-77
2022/08/30 03:34:14;;;;;;;5.90;2.60;;;;;;;;;;5070244;28;20282;-77
2022/08/30 03:36:40;;;;;;;5.47;2.73;;;;;;;;;;5059041;28;20267;-77
2022/08/30 03:39:07;;;;;;;4.77;2.83;;;;;;;;;;5068073;28;20212;-77
2022/08/30 03:41:33;;;;;;;3.90;2.60;;;;;;;;;;5066679;28;20674;-77
2022/08/30 03:44:00;;;;;;;3.87;2.63;;;;;;;;;;5068796;28;20316;-77
2022/08/30 03:46:26;;;;;;;3.60;2.67;;;;;;;;;;5062108;28;20204;-77
2022/08/30 03:48:54;;;;;;;4.43;2.80;;;;;;;;;;5066448;28;20347;-77
2022/08/30 03:51:21;;;;;;;4.70;2.70;;;;;;;;;;5067098;28;21321;-77
2022/08/30 03:53:47;;;;;;;5.83;2.83;;;;;;;;;;5064482;28;20197;-77
2022/08/30 03:56:14;;;;;;;6.40;3.00;;;;;;;;;;5048882;28;20252;-77
2022/08/30 03:58:40;;;;;;;6.10;2.90;;;;;;;;;;5063294;28;20656;-77
2022/08/30 04:01:07;;;;;;;5.50;2.90;;;;;;;;;;5065214;28;20194;-77
2022/08/30 04:03:33;;;;;;;5.77;2.70;;;;;;;;;;5067442;28;20216;-77
2022/08/30 04:05:59;;;;;;;5.07;2.60;;;;;;;;;;5065405;28;20181;-77
2022/08/30 04:08:26;;;;;;;3.73;2.70;;;;;;;;;;5068532;28;20192;-77
2022/08/30 04:10:52;;;;;;;5.33;2.80;;;;;;;;;;5046991;28;20220;-77
2022/08/30 04:13:19;;;;;;;4.33;2.90;;;;;;;;;;5038717;28;20659;-77
2022/08/30 04:15:46;;;;;;;4.57;3.00;;;;;;;;;;5071495;28;20505;-77
2022/08/30 04:18:12;;;;;;;5.00;2.87;;;;;;;;;;5068938;28;20197;-77
2022/08/30 04:20:38;;;;;;;3.30;2.70;;;;;;;;;;5067231;28;20190;-77
2022/08/30 04:23:08;;;;;;;3.77;2.73;;;;;;;;;;5053583;28;20776;-77
2022/08/30 04:25:35;;;;;;;4.43;3.07;;;;;;;;;;5061883;28;20196;-77
2022/08/30 04:28:02;;;;;;;5.57;3.27;;;;;;;;;;5066733;28;20181;-77
2022/08/30 04:30:28;;;;;;;4.07;2.80;;;;;;;;;;5063021;28;20673;-77
2022/08/30 04:32:54;;;;;;;5.83;3.20;;;;;;;;;;5074256;28;20676;-77
2022/08/30 04:35:20;;;;;;;5.03;3.20;;;;;;;;;;5071174;28;20618;-77
2022/08/30 04:37:47;;;;;;;3.77;2.87;;;;;;;;;;5039705;28;20609;-77
2022/08/30 04:40:13;;;;;;;5.13;3.00;;;;;;;;;;5054402;28;20209;-77
2022/08/30 04:42:41;;;;;;;4.73;3.00;;;;;;;;;;5055425;28;20274;-77
2022/08/30 04:45:08;;;;;;;5.43;3.00;;;;;;;;;;5061985;28;20209;-76
2022/08/30 04:47:35;;;;;;;4.57;2.77;;;;;;;;;;5072162;28;20212;-77
2022/08/30 04:50:02;;;;;;;3.20;2.50;;;;;;;;;;5055933;28;20185;-77
2022/08/30 04:52:28;;;;;;;5.30;3.07;;;;;;;;;;5063878;28;20660;-77
2022/08/30 04:54:55;;;;;;;4.57;2.73;;;;;;;;;;5064712;28;20218;-77
2022/08/30 04:57:21;;;;;;;7.67;3.23;;;;;;;;;;5061620;28;20177;-77
2022/08/30 04:59:47;;;;;;;4.97;3.17;;;;;;;;;;5069395;28;20189;-77
2022/08/30 05:02:14;;;;;;;5.70;3.20;;;;;;;;;;5064026;28;20186;-76
2022/08/30 05:05:38;;;;;;;5.03;2.90;;;;;;;;;;5061742;28;20213;-77
2022/08/30 05:07:26;;;;;;;4.40;3.07;;;;;;;;;;5051590;28;20246;-77
2022/08/30 05:09:52;;;;;;;5.47;2.73;;;;;;;;;;5044911;28;20186;-77
2022/08/30 05:12:18;;;;;;;4.37;2.90;;;;;;;;;;5060431;28;20260;-73
2022/08/30 05:14:45;;;;;;;4.40;2.93;;;;;;;;;;5063758;28;20723;-72
2022/08/30 05:17:11;;;;;;;5.00;3.13;;;;;;;;;;5063988;28;20271;-73
2022/08/30 05:19:37;;;;;;;6.77;3.10;;;;;;;;;;5073700;28;20266;-73
2022/08/30 05:22:03;;;;;;;6.43;3.13;;;;;;;;;;5064493;28;20292;-75
2022/08/30 05:24:30;;;;;;;4.60;3.30;;;;;;;;;;5044112;28;20211;-73
2022/08/30 05:26:57;;;;;;;6.27;3.00;;;;;;;;;;5061007;28;20193;-74
2022/08/30 05:29:23;;;;;;;6.47;3.00;;;;;;;;;;5061247;28;20605;-74
2022/08/30 05:31:49;;;;;;;7.30;3.10;;;;;;;;;;5056921;28;20319;-73
2022/08/30 05:34:16;;;;;;;4.17;3.10;;;;;;;;;;5072458;28;20283;-70
2022/08/30 05:36:42;;;;;;;8.53;3.03;;;;;;;;;;5051906;28;20188;-72
2022/08/30 05:39:09;;;;;;;3.97;3.00;;;;;;;;;;5061498;28;20185;-73
2022/08/30 05:41:36;;;;;;;7.97;3.07;;;;;;;;;;5058004;28;20193;-74
2022/08/30 05:44:03;;;;;;;3.63;3.10;;;;;;;;;;5064083;28;20688;-73
2022/08/30 05:46:32;;;;;;;5.43;3.27;;;;;;;;;;5062225;28;20221;-73
2022/08/30 05:49:01;;;;;;;5.87;3.50;;;;;;;;;;5061639;28;20181;-72
2022/08/30 05:51:28;;;;;;;6.27;3.53;;;;;;;;;;5070915;28;20258;-71
2022/08/30 05:53:55;;;;;;;4.60;3.27;;;;;;;;;;5075119;28;20789;-70
2022/08/30 05:56:22;;;;;;;7.23;3.20;;;;;;;;;;5065850;28;20558;-72
2022/08/30 05:58:48;;;;;;;9.67;3.40;;;;;;;;;;5060291;28;20207;-72
2022/08/30 06:01:22;;;;;;;6.80;3.93;;;;;;;;;;5063905;28;20181;-72
2022/08/30 06:03:48;;;;;;;5.53;3.10;;;;;;;;;;5073411;28;20687;-72
2022/08/30 06:06:15;;;;;;;8.97;3.70;;;;;;;;;;5062712;28;20474;-72
2022/08/30 06:08:44;;;;;;;7.50;3.63;;;;;;;;;;5075253;28;20658;-72
2022/08/30 06:11:11;;;;;;;5.80;3.40;;;;;;;;;;5059666;28;20173;-71
2022/08/30 06:13:37;;;;;;;4.33;3.37;;;;;;;;;;5076677;28;20615;-71
2022/08/30 06:16:03;;;;;;;5.87;3.67;;;;;;;;;;5060859;28;20197;-72
2022/08/30 06:18:30;;;;;;;6.03;3.60;;;;;;;;;;5063862;28;20189;-71
2022/08/30 06:20:57;;;;;;;6.27;3.20;;;;;;;;;;5062940;28;20219;-72
2022/08/30 06:23:24;;;;;;;5.33;3.13;;;;;;;;;;5073846;28;20898;-71
2022/08/30 06:25:50;;;;;;;10.63;3.40;;;;;;;;;;5065546;28;20174;-72
2022/08/30 06:28:17;;;;;;;4.97;3.33;;;;;;;;;;5070928;28;20189;-71
2022/08/30 06:30:43;;;;;;;7.03;3.23;;;;;;;;;;5070741;28;20187;-72
2022/08/30 06:33:09;;;;;;;5.70;3.40;;;;;;;;;;5082722;28;20675;-71
2022/08/30 06:35:36;;;;;;;4.47;3.20;;;;;;;;;;5065466;28;20636;-72
2022/08/30 06:38:03;;;;;;;4.67;3.20;;;;;;;;;;5060915;28;20189;-72
2022/08/30 06:40:29;;;;;;;11.70;3.47;;;;;;;;;;5066360;28;20174;-72
2022/08/30 06:42:55;;;;;;;5.07;3.27;;;;;;;;;;5067486;28;20504;-72
2022/08/30 06:45:21;;;;;;;7.47;3.37;;;;;;;;;;5064946;28;20267;-72
2022/08/30 06:47:48;;;;;;;6.73;3.50;;;;;;;;;;5062680;28;20180;-72
2022/08/30 06:50:15;;;;;;;8.00;4.03;;;;;;;;;;5067881;28;20250;-72
2022/08/30 06:52:42;;;;;;;6.70;3.50;;;;;;;;;;5070272;28;20708;-72
2022/08/30 06:55:13;;;;;;;6.67;3.80;;;;;;;;;;5085520;28;20183;-71
2022/08/30 06:57:39;;;;;;;6.23;3.70;;;;;;;;;;5067812;28;20571;-71
2022/08/30 07:00:08;;;;;;;6.30;3.50;;;;;;;;;;5071039;28;20212;-71
2022/08/30 07:02:36;;;;;;;6.20;3.47;;;;;;;;;;5069253;28;20192;-71
2022/08/30 07:05:02;;;;;;;4.73;3.10;;;;;;;;;;5070206;28;20270;-72
2022/08/30 07:07:29;;;;;;;5.50;3.40;;;;;;;;;;5060934;28;20268;-72
2022/08/30 07:09:56;;;;;;;4.63;3.17;;;;;;;;;;5066282;28;20380;-72
2022/08/30 07:12:22;;;;;;;7.40;3.60;;;;;;;;;;5076321;28;20245;-71
2022/08/30 07:14:49;;;;;;;6.13;3.40;;;;;;;;;;5071745;28;20220;-72
2022/08/30 07:20:00;;;;;;;5.80;3.20;;;;;;;;;;5064929;28;20196;-72
2022/08/30 07:22:27;;;;;;;7.37;3.17;;;;;;;;;;5077486;28;20876;-72
2022/08/30 07:24:53;;;;;;;6.47;3.20;;;;;;;;;;5068998;28;20200;-72
2022/08/30 07:27:20;;;;;;;4.40;3.20;;;;;;;;;;5067613;28;20169;-71
2022/08/30 07:29:48;;;;;;;5.93;3.17;;;;;;;;;;5066033;28;20180;-72
2022/08/30 07:32:14;;;;;;;4.10;3.20;;;;;;;;;;5066637;28;20188;-72
2022/08/30 07:34:40;;;;;;;5.67;2.90;;;;;;;;;;5059578;28;20726;-72
2022/08/30 07:37:07;;;;;;;6.53;3.10;;;;;;;;;;5070753;28;20227;-72
2022/08/30 07:39:33;;;;;;;4.73;3.30;;;;;;;;;;5073439;28;20202;-72
2022/08/30 07:41:59;;;;;;;5.80;3.20;;;;;;;;;;5049080;28;20235;-72
2022/08/30 07:44:25;;;;;;;6.70;3.70;;;;;;;;;;5067562;28;20217;-72
2022/08/30 07:46:51;;;;;;;6.17;3.20;;;;;;;;;;5071970;28;20670;-72
2022/08/30 07:49:18;;;;;;;7.47;3.47;;;;;;;;;;5061071;28;20174;-72
2022/08/30 07:51:45;;;;;;;8.27;3.40;;;;;;;;;;5077484;28;20232;-71
2022/08/30 07:54:11;;;;;;;5.20;3.40;;;;;;;;;;5067468;28;20621;-72
2022/08/30 07:56:37;;;;;;;9.20;3.57;;;;;;;;;;5062818;28;20676;-72
2022/08/30 07:59:04;;;;;;;7.60;3.23;;;;;;;;;;5074496;28;20487;-72
2022/08/30 08:01:30;;;;;;;6.13;3.07;;;;;;;;;;5076736;28;20247;-72
2022/08/30 08:03:56;;;;;;;5.43;2.83;;;;;;;;;;5068157;28;20208;-72
2022/08/30 08:06:23;;;;;;;5.10;3.00;;;;;;;;;;5058675;28;20260;-72
2022/08/30 08:08:50;;;;;;;5.93;3.23;;;;;;;;;;5076327;28;20183;-72
2022/08/30 08:11:18;;;;;;;6.73;3.23;;;;;;;;;;5066669;28;20276;-71
2022/08/30 08:13:45;;;;;;;6.00;2.73;;;;;;;;;;5066737;28;20613;-72
2022/08/30 08:16:11;;;;;;;6.17;3.00;;;;;;;;;;5068601;28;20181;-72
2022/08/30 08:18:38;;;;;;;4.20;2.70;;;;;;;;;;5064127;28;20184;-72
2022/08/30 08:21:04;;;;;;;4.77;2.50;;;;;;;;;;5065328;28;20185;-72
2022/08/30 08:23:31;;;;;;;4.90;2.90;;;;;;;;;;5083365;28;20265;-72
2022/08/30 08:25:57;;;;;;;7.70;2.97;;;;;;;;;;5074513;28;20260;-72
2022/08/30 08:28:23;;;;;;;6.23;2.80;;;;;;;;;;5079365;28;20850;-72
2022/08/30 08:30:50;;;;;;;5.33;2.90;;;;;;;;;;5064812;28;20180;-72
2022/08/30 08:33:17;;;;;;;4.93;3.00;;;;;;;;;;5062631;28;20258;-72
2022/08/30 08:35:43;;;;;;;5.33;2.80;;;;;;;;;;5067357;28;20189;-72
2022/08/30 08:38:09;;;;;;;6.00;3.10;;;;;;;;;;5062384;28;20185;-72
2022/08/30 08:40:41;;;;;;;4.93;3.00;;;;;;;;;;5058574;28;20186;-72
2022/08/30 08:43:11;;;;;;;6.83;3.00;;;;;;;;;;5072503;28;20445;-72
2022/08/30 08:45:54;;;;;;;6.70;2.80;;;;;;;;;;5067721;28;20198;-72
2022/08/30 08:48:32;;;;;;;6.50;3.10;;;;;;;;;;5070309;28;20562;-72
2022/08/30 08:53:47;;;;;;;5.70;2.90;;;;;;;;;;5065359;28;20865;-72
2022/08/30 08:56:15;;;;;;;6.00;2.87;;;;;;;;;;5066019;28;20187;-72
2022/08/30 08:58:44;;;;;;;6.73;3.10;;;;;;;;;;5061854;28;20185;-72
2022/08/30 09:01:11;;;;;;;4.33;2.80;;;;;;;;;;5058265;28;20184;-72
2022/08/30 09:03:38;;;;;;;5.90;3.10;;;;;;;;;;5070490;28;20216;-72
2022/08/30 09:06:11;;;;;;;6.43;2.60;;;;;;;;;;5072889;28;20709;-72
2022/08/30 09:08:37;;;;;;;6.83;2.90;;;;;;;;;;5054191;28;20227;-72
2022/08/30 09:11:05;;;;;;;5.20;2.87;;;;;;;;;;5058159;28;20612;-72
2022/08/30 09:13:32;;;;;;;7.10;2.93;;;;;;;;;;5081529;28;20246;-72
2022/08/30 09:15:58;;;;;;;7.03;2.80;;;;;;;;;;5051905;28;20196;-72
2022/08/30 09:18:40;;;;;;;4.23;2.70;;;;;;;;;;5055116;28;20192;-72
2022/08/30 09:21:07;;;;;;;3.90;2.60;;;;;;;;;;5072887;28;20199;-72
2022/08/30 09:23:34;;;;;;;5.33;2.80;;;;;;;;;;5069810;28;20213;-72
2022/08/30 09:26:01;;;;;;;6.70;2.90;;;;;;;;;;5071730;28;20535;-72
2022/08/30 09:28:29;;;;;;;4.43;2.90;;;;;;;;;;5065115;28;20279;-72
2022/08/30 09:31:06;;;;;;;7.53;2.90;;;;;;;;;;5072542;28;20640;-72
2022/08/30 09:33:32;;;;;;;5.30;3.10;;;;;;;;;;5067335;28;20737;-72
2022/08/30 09:36:28;;;;;;;7.73;3.00;;;;;;;;;;5059851;28;20208;-72
2022/08/30 09:38:59;;;;;;;3.43;2.43;;;;;;;;;;5038377;28;20220;-72
2022/08/30 09:41:34;;;;;;;4.00;2.90;;;;;;;;;;5071885;28;20582;-72
2022/08/30 09:44:18;;;;;;;3.07;2.50;;;;;;;;;;5071550;28;20683;-72
2022/08/30 09:46:52;;;;;;;3.93;2.93;;;;;;;;;;5068572;28;20177;-72
2022/08/30 09:49:29;;;;;;;4.33;2.73;;;;;;;;;;5062860;28;20185;-72
2022/08/30 09:52:06;;;;;;;4.47;2.80;;;;;;;;;;5065094;28;20230;-72
2022/08/30 09:54:41;;;;;;;4.00;2.90;;;;;;;;;;5059687;28;20204;-72
2022/08/30 09:57:22;;;;;;;6.67;2.90;;;;;;;;;;5062385;28;20179;-72
2022/08/30 10:00:03;;;;;;;5.00;2.60;;;;;;;;;;5059423;28;20625;-72
2022/08/30 10:02:33;;;;;;;3.90;2.60;;;;;;;;;;5070067;28;20682;-72
2022/08/30 10:05:08;;;;;;;3.37;2.77;;;;;;;;;;5069864;28;20314;-72
2022/08/30 10:07:53;;;;;;;4.97;2.80;;;;;;;;;;5071016;28;20174;-73
2022/08/30 10:10:25;;;;;;;2.93;2.60;;;;;;;;;;5068558;28;20187;-72
2022/08/30 10:12:51;;;;;;;3.60;2.90;;;;;;;;;;5082528;28;20598;-73
2022/08/30 10:15:23;;;;;;;4.63;3.00;;;;;;;;;;5069765;28;20266;-71
2022/08/30 10:18:05;;;;;;;6.33;2.83;;;;;;;;;;5062355;28;20177;-71
2022/08/30 10:20:40;;;;;;;3.50;2.73;;;;;;;;;;5053548;28;20182;-71
2022/08/30 10:23:16;;;;;;;3.03;2.63;;;;;;;;;;5069790;28;20239;-72
2022/08/30 10:25:49;;;;;;;5.60;3.00;;;;;;;;;;5064457;28;20183;-71
2022/08/30 10:28:53;;;;;;;5.50;3.00;;;;;;;;;;5062409;28;20202;-72
2022/08/30 10:31:33;;;;;;;4.03;2.90;;;;;;;;;;4993365;28;20213;-71
2022/08/30 10:34:02;;;;;;;3.63;2.80;;;;;;;;;;5012246;28;20241;-71
2022/08/30 10:36:35;;;;;;;3.67;2.77;;;;;;;;;;5054302;28;20288;-71
2022/08/30 10:39:02;;;;;;;4.13;2.87;;;;;;;;;;5067337;28;20189;-72
2022/08/30 10:41:34;;;;;;;3.77;2.90;;;;;;;;;;5068288;28;20189;-72
2022/08/30 10:44:06;;;;;;;4.27;3.00;;;;;;;;;;5075000;28;20211;-71
2022/08/30 10:46:35;;;;;;;4.70;2.73;;;;;;;;;;5066691;28;20170;-71
2022/08/30 10:49:03;;;;;;;3.20;2.90;;;;;;;;;;5065178;28;20174;-72
2022/08/30 10:51:44;;;;;;;5.00;2.80;;;;;;;;;;5064565;28;20554;-71
2022/08/30 10:54:20;;;;;;;4.10;2.90;;;;;;;;;;5075362;28;20251;-71
2022/08/30 10:56:50;;;;;;;4.37;3.00;;;;;;;;;;5051025;28;20194;-71
2022/08/30 10:59:16;;;;;;;4.63;2.93;;;;;;;;;;5061156;28;20185;-71
2022/08/30 11:02:04;;;;;;;4.27;3.00;;;;;;;;;;5069212;28;20551;-71
2022/08/30 11:04:33;;;;;;;7.43;3.20;;;;;;;;;;5066400;28;20227;-72
2022/08/30 11:07:25;;;;;;;3.70;3.30;;;;;;;;;;5069318;28;20181;-71
2022/08/30 11:10:13;;;;;;;3.63;2.90;;;;;;;;;;5054091;28;20784;-71
2022/08/30 11:12:52;;;;;;;5.60;3.00;;;;;;;;;;5070111;28;20177;-71
2022/08/30 11:15:21;;;;;;;4.60;3.07;;;;;;;;;;5068925;28;20184;-71
2022/08/30 11:17:47;;;;;;;2.97;2.57;;;;;;;;;;5068135;28;20212;-71
2022/08/30 11:20:28;;;;;;;5.10;2.93;;;;;;;;;;5066888;28;20185;-71
2022/08/30 11:23:14;;;;;;;5.63;3.27;;;;;;;;;;5060505;28;20575;-71
2022/08/30 11:25:54;;;;;;;3.80;2.60;;;;;;;;;;5068592;28;20531;-71
2022/08/30 11:28:35;;;;;;;3.93;3.13;;;;;;;;;;5063936;28;20209;-71
2022/08/30 11:31:08;;;;;;;6.07;3.10;;;;;;;;;;5073078;28;20981;-71
2022/08/30 11:33:42;;;;;;;3.17;2.60;;;;;;;;;;5065851;28;20209;-69
2022/08/30 11:36:10;;;;;;;3.17;2.87;;;;;;;;;;5030517;28;20706;-71
2022/08/30 11:38:36;;;;;;;4.87;2.63;;;;;;;;;;5072061;28;20692;-70
2022/08/30 11:41:10;;;;;;;3.10;2.80;;;;;;;;;;5065772;28;20264;-70
2022/08/30 11:43:38;;;;;;;3.10;2.67;;;;;;;;;;5073768;28;20623;-70
2022/08/30 11:46:37;;;;;;;5.17;3.20;;;;;;;;;;5059139;28;20263;-71
2022/08/30 11:49:12;;;;;;;3.67;3.00;;;;;;;;;;5022028;28;20740;-71
2022/08/30 11:51:38;;;;;;;3.53;2.90;;;;;;;;;;5070675;28;20180;-71
2022/08/30 11:54:22;;;;;;;3.20;2.90;;;;;;;;;;5071554;28;20577;-71
2022/08/30 11:57:00;;;;;;;3.37;3.07;;;;;;;;;;5054039;28;20650;-71
2022/08/30 11:59:33;;;;;;;3.20;2.90;;;;;;;;;;5075578;28;20185;-71
2022/08/30 12:02:00;;;;;;;4.27;3.00;;;;;;;;;;5068158;28;20312;-71
2022/08/30 12:04:28;;;;;;;3.13;2.80;;;;;;;;;;5080212;28;20562;-71
2022/08/30 12:06:59;;;;;;;4.80;3.03;;;;;;;;;;5077868;28;20186;-71
2022/08/30 12:09:25;;;;;;;6.77;3.07;;;;;;;;;;5075947;28;20188;-71
2022/08/30 12:11:54;;;;;;;3.20;2.90;;;;;;;;;;5078854;28;20178;-71
2022/08/30 12:14:39;;;;;;;4.20;3.00;;;;;;;;;;5067674;28;20214;-71
2022/08/30 12:19:59;;;;;;;3.60;2.90;;;;;;;;;;5066614;28;20282;-71
2022/08/30 12:22:30;;;;;;;4.40;2.80;;;;;;;;;;5074006;28;20187;-72
2022/08/30 12:24:56;;;;;;;3.83;3.00;;;;;;;;;;5055729;28;20208;-71
2022/08/30 12:27:22;;;;;;;3.03;2.73;;;;;;;;;;5081142;28;20247;-72
2022/08/30 12:30:08;;;;;;;3.73;3.10;;;;;;;;;;5071956;28;20629;-72
2022/08/30 12:32:41;;;;;;;3.13;2.83;;;;;;;;;;5070545;28;20200;-72
2022/08/30 12:35:17;;;;;;;3.93;2.70;;;;;;;;;;5075173;28;20646;-72
2022/08/30 12:37:43;;;;;;;5.00;2.90;;;;;;;;;;5073715;28;20175;-72
2022/08/30 12:40:12;;;;;;;3.07;2.73;;;;;;;;;;5071678;28;20214;-72
2022/08/30 12:42:40;;;;;;;3.53;3.23;;;;;;;;;;5077530;28;20721;-72
2022/08/30 12:45:20;;;;;;;3.37;2.77;;;;;;;;;;5080974;28;20234;-72
2022/08/30 12:47:53;;;;;;;3.60;3.03;;;;;;;;;;5063101;28;20189;-72
2022/08/30 12:50:22;;;;;;;3.37;2.90;;;;;;;;;;5058037;28;20186;-72
2022/08/30 12:52:55;;;;;;;5.03;2.93;;;;;;;;;;5068121;28;20178;-72
2022/08/30 12:55:23;;;;;;;4.33;2.60;;;;;;;;;;5074623;28;20212;-72
2022/08/30 12:58:16;;;;;;;3.43;2.90;;;;;;;;;;5070294;28;20669;-72
2022/08/30 13:00:45;;;;;;;3.73;2.80;;;;;;;;;;5061740;28;20193;-72
2022/08/30 13:03:29;;;;;;;4.90;2.87;;;;;;;;;;5070511;28;20540;-71
2022/08/30 13:05:56;;;;;;;4.13;2.80;;;;;;;;;;5058304;28;20217;-71
2022/08/30 13:08:26;;;;;;;6.53;2.97;;;;;;;;;;5067335;28;20607;-72
2022/08/30 13:10:54;;;;;;;3.50;2.80;;;;;;;;;;5072462;28;20181;-72
2022/08/30 13:13:28;;;;;;;7.37;3.13;;;;;;;;;;5053228;28;20821;-71
2022/08/30 13:15:54;;;;;;;4.17;3.27;;;;;;;;;;5069277;28;20211;-71
2022/08/30 13:18:26;;;;;;;3.70;3.20;;;;;;;;;;5070692;28;20644;-71
2022/08/30 13:21:08;;;;;;;4.53;3.20;;;;;;;;;;5072634;28;20185;-71
2022/08/30 13:23:35;;;;;;;5.03;2.70;;;;;;;;;;5069649;28;20222;-71
2022/08/30 13:26:01;;;;;;;3.27;2.97;;;;;;;;;;5080232;28;20198;-72
2022/08/30 13:28:27;;;;;;;3.50;2.70;;;;;;;;;;5064247;28;20191;-72
2022/08/30 13:30:54;;;;;;;2.90;2.70;;;;;;;;;;5073921;28;20228;-72
2022/08/30 13:33:20;;;;;;;3.70;3.20;;;;;;;;;;5082233;28;20278;-72
2022/08/30 13:35:46;;;;;;;3.53;2.97;;;;;;;;;;5080113;28;20658;-72
2022/08/30 13:38:12;;;;;;;3.47;2.97;;;;;;;;;;5069164;28;20193;-72
2022/08/30 13:40:38;;;;;;;4.23;3.10;;;;;;;;;;5071699;28;20677;-72
2022/08/30 13:43:04;;;;;;;3.50;2.90;;;;;;;;;;5081446;28;20718;-72
2022/08/30 13:45:31;;;;;;;3.20;2.90;;;;;;;;;;5079750;28;20240;-72
2022/08/30 13:47:57;;;;;;;3.30;3.00;;;;;;;;;;5072839;28;20185;-72
2022/08/30 13:50:23;;;;;;;3.00;2.80;;;;;;;;;;5077209;28;20176;-71
2022/08/30 13:52:49;;;;;;;3.23;2.90;;;;;;;;;;5077481;28;20174;-72
2022/08/30 13:55:15;;;;;;;3.00;2.70;;;;;;;;;;5077992;28;20658;-72
2022/08/30 13:57:41;;;;;;;3.10;2.80;;;;;;;;;;5074038;28;20181;-72
2022/08/30 14:00:10;;;;;;;3.37;3.07;;;;;;;;;;5074422;28;20192;-72
2022/08/30 14:02:38;;;;;;;3.10;2.80;;;;;;;;;;5079270;28;20184;-72
2022/08/30 14:05:05;;;;;;;4.20;2.93;;;;;;;;;;5080132;28;20760;-72
2022/08/30 14:07:31;;;;;;;4.53;2.60;;;;;;;;;;5073260;28;20198;-72
2022/08/30 14:09:59;;;;;;;3.93;2.80;;;;;;;;;;5070727;28;20180;-72
2022/08/30 14:12:25;;;;;;;3.23;2.57;;;;;;;;;;5057116;28;20359;-72
2022/08/30 14:14:51;;;;;;;2.90;2.60;;;;;;;;;;5082237;28;20206;-72
2022/08/30 14:17:17;;;;;;;4.50;2.97;;;;;;;;;;5075205;28;20217;-71
2022/08/30 14:19:43;;;;;;;3.47;2.93;;;;;;;;;;5071318;28;20184;-72
2022/08/30 14:22:09;;;;;;;3.10;2.80;;;;;;;;;;5080794;28;20186;-72
2022/08/30 14:24:35;;;;;;;4.67;3.00;;;;;;;;;;5075724;28;20248;-71
2022/08/30 14:27:02;;;;;;;3.70;3.13;;;;;;;;;;5076564;28;20185;-71
2022/08/30 14:29:30;;;;;;;3.53;3.13;;;;;;;;;;5071686;28;20640;-71
2022/08/30 14:31:57;;;;;;;4.13;3.00;;;;;;;;;;5081301;28;20570;-71
2022/08/30 14:34:23;;;;;;;3.60;3.20;;;;;;;;;;5078399;28;20365;-71
2022/08/30 14:36:50;;;;;;;4.20;3.20;;;;;;;;;;5077334;28;20310;-71
2022/08/30 14:39:17;;;;;;;3.63;3.33;;;;;;;;;;5068463;28;20624;-70
2022/08/30 14:41:45;;;;;;;4.60;3.40;;;;;;;;;;5068547;28;20180;-71
2022/08/30 14:44:15;;;;;;;3.40;2.93;;;;;;;;;;5062737;28;20276;-70
2022/08/30 14:46:42;;;;;;;3.20;2.90;;;;;;;;;;5072342;28;20263;-71
2022/08/30 14:49:08;;;;;;;4.13;3.30;;;;;;;;;;5086358;28;20555;-70
2022/08/30 14:51:34;;;;;;;4.67;3.70;;;;;;;;;;5056390;28;20287;-71
2022/08/30 14:54:01;;;;;;;3.23;3.03;;;;;;;;;;5066983;28;20302;-71
2022/08/30 14:56:27;;;;;;;3.37;3.03;;;;;;;;;;5062527;28;20660;-71
2022/08/30 14:58:59;;;;;;;3.47;2.50;;;;;;;;;;5073512;28;20223;-71
2022/08/30 15:01:25;;;;;;;2.87;2.67;;;;;;;;;;5054239;28;20213;-71